Time;durP1;ratioP1;P1;durP2;ratioP2;P2;SDS_P1;SDS_P2;PMS_P1;PMS_P2;Temp;Humidity;BMP_temperature;BMP_pressure;BME280_temperature;BME280_humidity;BME280_pressure;Samples;Min_cycle;Max_cycle;Signal;HPM_P1;HPM_P2
2022/11/23 00:02:14;;;;;;;67.50;28.70;;;;;;;-1.02;96.53;97357.23;103181;1303;138262;-73
2022/11/23 00:04:41;;;;;;;54.90;26.80;;;;;;;-1.02;97.13;97351.86;103140;1288;23875;-73
2022/11/23 00:07:08;;;;;;;56.30;26.70;;;;;;;-1.00;97.41;97347.30;102963;1287;138377;-74
2022/11/23 00:09:36;;;;;;;61.60;28.30;;;;;;;-0.97;97.88;97348.44;103041;1313;22511;-73
2022/11/23 00:12:03;;;;;;;56.00;26.30;;;;;;;-0.95;97.91;97344.55;103042;1297;22629;-73
2022/11/23 00:14:29;;;;;;;58.80;26.80;;;;;;;-0.93;97.56;97346.23;102903;1284;138448;-73
2022/11/23 00:16:56;;;;;;;51.60;27.10;;;;;;;-0.92;97.81;97345.58;102858;1289;23074;-73
2022/11/23 00:19:23;;;;;;;55.70;25.20;;;;;;;-0.90;98.01;97347.79;102845;1304;138315;-73
2022/11/23 00:21:50;;;;;;;63.50;27.20;;;;;;;-0.88;97.88;97348.80;103120;1293;22491;-73
2022/11/23 00:24:17;;;;;;;55.90;26.50;;;;;;;-0.86;97.89;97342.55;102989;1296;22474;-73
2022/11/23 00:26:44;;;;;;;60.60;27.40;;;;;;;-0.85;97.89;97346.47;102832;1298;139793;-73
2022/11/23 00:29:11;;;;;;;54.90;25.70;;;;;;;-0.84;98.31;97352.52;103047;1284;24323;-73
2022/11/23 00:31:39;;;;;;;55.90;26.50;;;;;;;-0.82;97.78;97351.81;102902;1298;138216;-73
2022/11/23 00:34:07;;;;;;;58.30;27.00;;;;;;;-0.80;98.06;97349.94;102933;1291;23868;-73
2022/11/23 00:36:34;;;;;;;52.60;24.80;;;;;;;-0.78;98.08;97351.59;102731;1307;139745;-73
2022/11/23 00:39:01;;;;;;;53.00;24.50;;;;;;;-0.77;97.86;97351.59;101584;1282;1656645;-73
2022/11/23 00:41:28;;;;;;;49.00;24.60;;;;;;;-0.77;97.57;97357.19;102871;1294;24220;-73
2022/11/23 00:43:54;;;;;;;54.70;26.20;;;;;;;-0.79;97.25;97355.78;102797;1290;138291;-73
2022/11/23 00:46:25;;;;;;;53.70;25.50;;;;;;;-0.80;97.07;97356.11;103010;1311;23199;-73
2022/11/23 00:48:56;;;;;;;54.10;24.40;;;;;;;-0.83;96.64;97357.37;102978;1295;138404;-73
2022/11/23 00:51:25;;;;;;;53.20;26.40;;;;;;;-0.84;97.03;97355.41;103020;1311;22478;-73
2022/11/23 00:53:52;;;;;;;54.00;26.00;;;;;;;-0.84;96.74;97355.57;102890;1288;23896;-74
2022/11/23 00:56:20;;;;;;;50.80;24.70;;;;;;;-0.82;97.26;97358.48;102879;1304;138460;-73
2022/11/23 00:58:51;;;;;;;56.00;26.10;;;;;;;-0.81;97.40;97364.50;103074;1281;24302;-73
2022/11/23 01:01:21;;;;;;;59.10;25.60;;;;;;;-0.81;96.90;97367.70;102931;1304;138329;-73
2022/11/23 01:03:50;;;;;;;58.20;26.80;;;;;;;-0.82;96.93;97370.50;103110;1289;22540;-74
2022/11/23 01:06:22;;;;;;;58.10;27.90;;;;;;;-0.81;97.43;97367.53;103100;1311;25360;-73
2022/11/23 01:08:54;;;;;;;55.90;25.80;;;;;;;-0.80;97.60;97366.96;103105;1305;22890;-73
2022/11/23 01:11:24;;;;;;;54.50;26.30;;;;;;;-0.76;97.76;97362.38;103075;1313;22497;-74
2022/11/23 01:13:51;;;;;;;56.40;25.90;;;;;;;-0.74;97.73;97362.33;102932;1285;138274;-73
2022/11/23 01:16:21;;;;;;;51.10;25.80;;;;;;;-0.72;97.86;97359.22;102929;1299;23039;-74
2022/11/23 01:18:52;;;;;;;51.10;24.60;;;;;;;-0.69;97.90;97354.91;102759;1289;138430;-75
2022/11/23 01:21:19;;;;;;;52.40;25.50;;;;;;;-0.67;98.02;97351.48;103035;1288;25389;-74
2022/11/23 01:23:46;;;;;;;52.80;24.50;;;;;;;-0.65;97.67;97348.02;102987;1290;25309;-74
2022/11/23 01:26:13;;;;;;;49.50;22.90;;;;;;;-0.65;97.87;97346.29;103023;1297;139836;-74
2022/11/23 01:28:40;;;;;;;48.40;24.50;;;;;;;-0.63;97.71;97345.92;103149;1288;25431;-74
2022/11/23 01:31:13;;;;;;;52.00;24.90;;;;;;;-0.61;97.78;97339.80;102902;1310;138895;-74
2022/11/23 01:33:41;;;;;;;46.30;23.20;;;;;;;-0.60;97.71;97336.97;103011;1310;22507;-74
2022/11/23 01:36:17;;;;;;;53.70;25.50;;;;;;;-0.60;97.77;97333.19;102989;1311;22526;-74
2022/11/23 01:38:46;;;;;;;50.50;24.70;;;;;;;-0.59;97.52;97339.48;102943;1310;138169;-75
2022/11/23 01:41:19;;;;;;;56.60;24.70;;;;;;;-0.59;97.46;97337.70;102936;1312;22496;-74
2022/11/23 01:43:50;;;;;;;46.30;24.20;;;;;;;-0.59;97.60;97336.05;102829;1283;138295;-75
2022/11/23 01:46:17;;;;;;;52.20;24.80;;;;;;;-0.57;97.44;97339.23;102992;1304;22478;-74
2022/11/23 01:48:50;;;;;;;52.40;25.70;;;;;;;-0.55;97.57;97344.58;102828;1283;138875;-74
2022/11/23 01:51:21;;;;;;;52.70;26.50;;;;;;;-0.55;97.51;97347.75;102908;1310;24287;-74
2022/11/23 01:53:52;;;;;;;54.30;25.50;;;;;;;-0.55;97.80;97353.23;102978;1299;22474;-74
2022/11/23 01:56:26;;;;;;;53.40;25.90;;;;;;;-0.53;97.84;97358.58;103033;1312;138280;-74
2022/11/23 01:58:57;;;;;;;53.90;25.80;;;;;;;-0.50;97.92;97356.02;103161;1296;22520;-75
2022/11/23 02:01:24;;;;;;;59.40;26.60;;;;;;;-0.48;97.60;97355.23;103013;1281;138285;-74
2022/11/23 02:03:54;;;;;;;53.70;24.90;;;;;;;-0.47;97.37;97359.59;102958;1291;24231;-74
2022/11/23 02:06:22;;;;;;;55.70;26.80;;;;;;;-0.47;97.75;97355.92;103112;1304;22468;-74
2022/11/23 02:08:50;;;;;;;62.10;26.10;;;;;;;-0.46;97.65;97357.61;103116;1297;22483;-74
2022/11/23 02:11:17;;;;;;;59.10;25.70;;;;;;;-0.44;97.91;97354.66;102986;1312;22491;-74
2022/11/23 02:13:46;;;;;;;61.00;27.70;;;;;;;-0.42;97.65;97351.95;102951;1291;138801;-74
2022/11/23 02:16:14;;;;;;;59.40;28.00;;;;;;;-0.41;97.81;97347.64;103161;1289;22483;-74
2022/11/23 02:18:45;;;;;;;59.80;27.20;;;;;;;-0.40;97.78;97344.26;103122;1288;138547;-74
2022/11/23 02:21:13;;;;;;;60.40;26.70;;;;;;;-0.37;97.56;97344.34;103462;1291;22543;-74
2022/11/23 02:24:17;;;;;;;58.20;26.70;;;;;;;-0.37;97.35;97345.58;103495;1289;24372;-74
2022/11/23 02:26:45;;;;;;;57.30;27.10;;;;;;;-0.42;96.98;97345.04;103442;1282;138291;-74
2022/11/23 02:29:17;;;;;;;59.50;27.30;;;;;;;-0.44;97.15;97342.15;103352;1289;22865;-75
2022/11/23 02:31:45;;;;;;;58.10;26.90;;;;;;;-0.44;97.52;97339.60;104232;1302;138474;-75
2022/11/23 02:34:11;;;;;;;61.50;27.20;;;;;;;-0.42;97.61;97343.47;104603;1290;24308;-74
2022/11/23 02:36:40;;;;;;;56.20;27.10;;;;;;;-0.40;97.84;97344.96;103887;1299;138569;-75
2022/11/23 02:39:13;;;;;;;64.80;27.90;;;;;;;-0.35;97.97;97350.35;103917;1288;23396;-74
2022/11/23 02:41:44;;;;;;;59.80;27.30;;;;;;;-0.33;98.01;97348.09;104227;1287;23406;-74
2022/11/23 02:44:32;;;;;;;64.60;28.40;;;;;;;-0.31;97.58;97341.84;104458;1282;140240;-74
2022/11/23 02:47:00;;;;;;;65.50;28.10;;;;;;;-0.29;97.59;97342.46;103023;1283;25142;-75
2022/11/23 02:49:27;;;;;;;62.00;27.50;;;;;;;-0.27;97.73;97337.27;103554;1293;138300;-75
2022/11/23 02:51:54;;;;;;;62.20;26.80;;;;;;;-0.26;97.34;97342.10;104854;1284;22478;-74
2022/11/23 02:54:22;;;;;;;60.60;27.00;;;;;;;-0.26;97.33;97341.80;103817;1287;22494;-74
2022/11/23 02:56:49;;;;;;;62.20;28.20;;;;;;;-0.26;97.29;97338.44;104261;1296;25193;-74
2022/11/23 02:59:19;;;;;;;61.60;27.80;;;;;;;-0.26;97.15;97338.97;104534;1294;25268;-74
2022/11/23 03:01:47;;;;;;;62.30;26.30;;;;;;;-0.26;97.09;97338.89;104384;1288;138342;-75
2022/11/23 03:04:14;;;;;;;63.90;27.70;;;;;;;-0.25;97.16;97336.09;104000;1288;22469;-74
2022/11/23 03:06:41;;;;;;;68.50;28.20;;;;;;;-0.25;97.08;97339.80;103088;1295;140186;-74
2022/11/23 03:09:08;;;;;;;63.10;27.90;;;;;;;-0.25;97.09;97338.80;104397;1288;22398;-75
2022/11/23 03:11:35;;;;;;;61.90;27.30;;;;;;;-0.24;97.23;97336.83;104199;1291;22608;-74
2022/11/23 03:14:03;;;;;;;66.90;29.40;;;;;;;-0.23;97.37;97335.08;104589;1290;138402;-74
2022/11/23 03:16:33;;;;;;;61.30;28.90;;;;;;;-0.23;97.16;97337.58;103763;1296;22725;-74
2022/11/23 03:19:00;;;;;;;62.00;27.60;;;;;;;-0.23;96.84;97336.79;103766;1287;138942;-74
2022/11/23 03:21:27;;;;;;;61.10;27.70;;;;;;;-0.23;97.01;97338.27;103596;1281;22952;-74
2022/11/23 03:23:54;;;;;;;63.10;27.60;;;;;;;-0.22;97.26;97336.46;103376;1285;22473;-74
2022/11/23 03:26:21;;;;;;;63.80;28.00;;;;;;;-0.22;96.87;97334.45;103179;1281;138525;-74
2022/11/23 03:28:57;;;;;;;61.00;28.60;;;;;;;-0.22;97.01;97334.98;103700;1283;22552;-74
2022/11/23 03:31:26;;;;;;;58.10;28.20;;;;;;;-0.22;96.78;97333.17;103108;1290;139066;-74
2022/11/23 03:33:56;;;;;;;64.20;28.30;;;;;;;-0.22;96.82;97331.45;104006;1280;22973;-74
2022/11/23 03:36:24;;;;;;;63.70;27.30;;;;;;;-0.21;97.06;97335.98;103406;1288;140022;-74
2022/11/23 03:38:51;;;;;;;62.80;28.50;;;;;;;-0.21;96.81;97336.27;104761;1295;24231;-74
2022/11/23 03:41:33;;;;;;;63.20;27.30;;;;;;;-0.21;97.10;97331.98;105070;1294;22469;-74
2022/11/23 03:44:00;;;;;;;58.90;26.90;;;;;;;-0.21;96.73;97336.84;104000;1288;138470;-74
2022/11/23 03:46:27;;;;;;;58.40;27.90;;;;;;;-0.21;96.75;97333.67;103280;1290;22642;-74
2022/11/23 03:48:54;;;;;;;64.70;28.70;;;;;;;-0.20;96.98;97332.77;103233;1288;138542;-74
2022/11/23 03:51:22;;;;;;;63.60;28.40;;;;;;;-0.21;96.85;97330.02;103235;1288;22484;-74
2022/11/23 03:53:49;;;;;;;59.70;27.00;;;;;;;-0.23;96.46;97327.77;103084;1291;23302;-74
2022/11/23 03:56:15;;;;;;;61.10;25.80;;;;;;;-0.26;96.15;97329.14;103017;1290;138905;-74
2022/11/23 03:58:45;;;;;;;63.40;28.80;;;;;;;-0.31;96.14;97331.70;103330;1298;22904;-74
2022/11/23 04:01:13;;;;;;;61.20;27.20;;;;;;;-0.34;96.17;97329.36;103312;1295;138293;-75
2022/11/23 04:03:43;;;;;;;67.70;29.20;;;;;;;-0.39;96.24;97328.79;103276;1304;24314;-74
2022/11/23 04:06:10;;;;;;;55.80;26.40;;;;;;;-0.40;96.57;97323.48;103232;1310;22921;-74
2022/11/23 04:09:16;;;;;;;58.60;25.40;;;;;;;-0.42;96.41;97327.83;103224;1313;25247;-75
2022/11/23 04:11:52;;;;;;;56.50;25.20;;;;;;;-0.44;96.61;97327.30;103182;1289;22757;-74
2022/11/23 04:14:19;;;;;;;58.90;26.40;;;;;;;-0.45;96.30;97328.77;103060;1305;139170;-74
2022/11/23 04:16:46;;;;;;;55.80;26.90;;;;;;;-0.46;96.67;97328.92;103500;1292;22506;-75
2022/11/23 04:19:13;;;;;;;53.30;25.00;;;;;;;-0.48;96.46;97329.35;103289;1298;138379;-74
2022/11/23 04:21:40;;;;;;;54.50;26.30;;;;;;;-0.49;96.32;97330.04;103128;1298;22708;-75
2022/11/23 04:24:08;;;;;;;61.30;28.20;;;;;;;-0.50;96.54;97335.14;103397;1288;22527;-74
2022/11/23 04:26:36;;;;;;;57.80;27.30;;;;;;;-0.50;96.63;97337.31;102750;1291;140212;-74
2022/11/23 04:29:02;;;;;;;60.80;26.30;;;;;;;-0.51;96.82;97336.37;103054;1291;22502;-74
2022/11/23 04:31:31;;;;;;;58.00;25.80;;;;;;;-0.51;97.15;97337.52;103375;1289;138624;-74
2022/11/23 04:34:08;;;;;;;55.80;25.90;;;;;;;-0.50;96.97;97334.57;103215;1289;22533;-74
2022/11/23 04:36:35;;;;;;;60.50;27.60;;;;;;;-0.49;97.03;97334.80;103013;1302;138530;-74
2022/11/23 04:39:03;;;;;;;62.20;27.00;;;;;;;-0.49;97.23;97336.95;103151;1288;22492;-74
2022/11/23 04:41:36;;;;;;;56.10;26.10;;;;;;;-0.47;97.18;97337.13;103028;1306;22608;-74
2022/11/23 04:44:05;;;;;;;63.50;27.10;;;;;;;-0.48;96.86;97337.41;103059;1297;138292;-74
2022/11/23 04:46:34;;;;;;;59.60;28.90;;;;;;;-0.49;96.94;97338.20;103398;1312;22536;-75
2022/11/23 04:49:04;;;;;;;58.60;26.10;;;;;;;-0.49;97.05;97334.70;103031;1307;139270;-74
2022/11/23 04:51:31;;;;;;;55.80;25.90;;;;;;;-0.48;96.89;97336.88;103079;1288;22910;-74
2022/11/23 04:54:03;;;;;;;65.50;27.60;;;;;;;-0.50;96.75;97332.52;103707;1288;24349;-75
2022/11/23 04:56:35;;;;;;;53.60;25.20;;;;;;;-0.52;96.69;97330.98;103271;1312;138231;-75
2022/11/23 04:59:03;;;;;;;50.10;24.10;;;;;;;-0.52;96.93;97334.14;103015;1297;22483;-75
2022/11/23 05:01:30;;;;;;;49.70;24.00;;;;;;;-0.56;96.45;97333.32;102871;1290;138588;-75
2022/11/23 05:04:19;;;;;;;49.20;23.50;;;;;;;-0.60;96.66;97339.16;102941;1313;24376;-74
2022/11/23 05:06:46;;;;;;;50.80;23.50;;;;;;;-0.63;96.43;97338.29;103360;1291;139022;-74
2022/11/23 05:09:14;;;;;;;47.20;23.40;;;;;;;-0.66;96.52;97339.38;103421;1295;22502;-75
2022/11/23 05:11:55;;;;;;;44.70;21.20;;;;;;;-0.68;96.67;97343.40;103024;1313;22528;-76
2022/11/23 05:14:22;;;;;;;47.60;22.40;;;;;;;-0.71;96.68;97340.14;102995;1288;138699;-75
2022/11/23 05:16:49;;;;;;;47.50;22.40;;;;;;;-0.75;96.57;97341.73;103143;1305;22535;-75
2022/11/23 05:19:16;;;;;;;44.80;21.40;;;;;;;-0.78;96.51;97346.83;103209;1287;138329;-75
2022/11/23 05:21:43;;;;;;;48.20;22.50;;;;;;;-0.82;96.43;97343.61;102862;1299;25187;-75
2022/11/23 05:24:11;;;;;;;44.40;21.20;;;;;;;-0.86;96.62;97346.55;102675;1300;22530;-75
2022/11/23 05:26:40;;;;;;;47.70;21.80;;;;;;;-0.89;96.66;97352.00;102853;1294;138694;-75
2022/11/23 05:29:07;;;;;;;41.80;20.60;;;;;;;-0.91;96.72;97355.48;102856;1299;22487;-75
2022/11/23 05:31:33;;;;;;;50.50;21.90;;;;;;;-0.94;96.97;97351.00;103160;1288;138288;-75
2022/11/23 05:34:03;;;;;;;45.60;21.80;;;;;;;-0.93;97.12;97350.80;103225;1301;22611;-75
2022/11/23 05:36:36;;;;;;;44.90;20.80;;;;;;;-0.94;97.17;97353.75;103259;1288;138987;-75
2022/11/23 05:39:03;;;;;;;41.00;19.10;;;;;;;-0.94;96.93;97356.58;103292;1290;22870;-76
2022/11/23 05:41:34;;;;;;;39.90;18.30;;;;;;;-0.97;96.78;97354.75;103050;1310;22458;-75
2022/11/23 05:44:01;;;;;;;33.40;17.00;;;;;;;-1.00;96.99;97359.80;101854;1312;1220742;-75
2022/11/23 05:46:29;;;;;;;36.90;16.50;;;;;;;-1.05;96.49;97364.02;103514;1304;22522;-76
2022/11/23 05:48:56;;;;;;;30.60;15.70;;;;;;;-1.10;96.61;97364.52;103071;1294;140537;-75
2022/11/23 05:51:24;;;;;;;28.50;15.20;;;;;;;-1.14;96.75;97367.63;103208;1282;22467;-75
2022/11/23 05:53:50;;;;;;;33.40;14.90;;;;;;;-1.17;97.17;97369.63;103440;1285;23941;-75
2022/11/23 05:56:33;;;;;;;30.30;15.20;;;;;;;-1.20;96.98;97380.67;102904;1298;139631;-75
2022/11/23 05:59:23;;;;;;;29.40;13.60;;;;;;;-1.21;97.16;97379.05;103241;1312;25373;-75
2022/11/23 06:01:54;;;;;;;30.10;14.70;;;;;;;-1.22;97.19;97371.52;102985;1306;138431;-75
2022/11/23 06:04:25;;;;;;;28.10;12.00;;;;;;;-1.23;97.33;97373.38;102970;1291;25238;-75
2022/11/23 06:06:53;;;;;;;28.90;13.60;;;;;;;-1.22;97.44;97368.15;103021;1291;138446;-75
2022/11/23 06:09:20;;;;;;;28.50;13.90;;;;;;;-1.23;97.66;97369.10;103441;1291;26674;-76
2022/11/23 06:11:48;;;;;;;28.90;13.40;;;;;;;-1.21;97.53;97369.94;103180;1313;24413;-76
2022/11/23 06:14:17;;;;;;;;;;;;;;;-1.20;97.66;97377.92;103036;1289;139604;-75
2022/11/23 06:16:45;;;;;;;26.80;13.00;;;;;;;-1.21;97.60;97388.92;103728;1305;24253;-75
2022/11/23 06:19:40;;;;;;;27.20;12.40;;;;;;;-1.24;97.62;97397.20;103035;1291;139274;-75
2022/11/23 06:22:07;;;;;;;26.60;12.60;;;;;;;-1.24;97.85;97400.07;102855;1312;23471;-75
2022/11/23 06:24:41;;;;;;;27.50;12.50;;;;;;;-1.24;97.94;97397.65;102661;1300;138967;-75
2022/11/23 06:27:28;;;;;;;25.00;11.50;;;;;;;-1.21;98.19;97405.73;102839;1312;24324;-75
2022/11/23 06:29:55;;;;;;;24.30;11.70;;;;;;;-1.19;98.30;97411.73;103362;1288;25336;-75
2022/11/23 06:32:23;;;;;;;23.70;12.00;;;;;;;-1.17;98.19;97413.77;103223;1298;138238;-75
2022/11/23 06:34:50;;;;;;;23.50;11.60;;;;;;;-1.15;98.41;97409.27;103376;1296;22477;-75
2022/11/23 06:37:17;;;;;;;21.40;11.30;;;;;;;-1.14;98.25;97408.77;103611;1304;138981;-76
2022/11/23 06:39:47;;;;;;;21.30;10.60;;;;;;;-1.13;98.14;97410.95;103356;1289;25341;-75
2022/11/23 06:42:17;;;;;;;24.40;11.60;;;;;;;-1.12;98.06;97412.44;103218;1304;24472;-75
2022/11/23 06:44:44;;;;;;;27.20;13.90;;;;;;;-1.11;98.18;97409.80;103201;1303;138147;-75
2022/11/23 06:47:11;;;;;;;25.60;11.50;;;;;;;-1.08;98.38;97407.00;103135;1312;22582;-76
2022/11/23 06:49:38;;;;;;;25.80;12.20;;;;;;;-1.05;98.43;97407.42;104099;1289;138333;-75
2022/11/23 06:52:15;;;;;;;24.70;11.30;;;;;;;-1.03;98.31;97410.42;103203;1289;22486;-75
2022/11/23 06:54:42;;;;;;;23.50;11.70;;;;;;;-1.03;98.08;97405.21;103508;1304;138921;-75
2022/11/23 06:57:09;;;;;;;21.20;10.70;;;;;;;-1.00;98.47;97408.43;103362;1295;22479;-75
2022/11/23 06:59:37;;;;;;;23.70;11.60;;;;;;;-0.99;98.32;97407.46;103859;1286;22583;-75
2022/11/23 07:02:06;;;;;;;21.90;11.00;;;;;;;-0.97;98.43;97414.83;103098;1312;139435;-75
2022/11/23 07:04:35;;;;;;;21.00;10.90;;;;;;;-0.95;98.46;97412.95;103719;1288;25276;-75
2022/11/23 07:07:04;;;;;;;24.80;11.10;;;;;;;-0.93;98.27;97416.65;103002;1288;138753;-75
2022/11/23 07:09:40;;;;;;;20.80;10.00;;;;;;;-0.90;98.78;97412.55;103569;1312;22502;-75
2022/11/23 07:12:33;;;;;;;22.10;10.90;;;;;;;-0.89;98.41;97415.77;103001;1299;139463;-75
2022/11/23 07:15:01;;;;;;;25.70;12.50;;;;;;;-0.85;98.45;97420.85;103218;1286;22499;-75
2022/11/23 07:17:38;;;;;;;25.30;12.50;;;;;;;-0.82;98.58;97416.26;103905;1296;22484;-75
2022/11/23 07:20:07;;;;;;;25.10;11.90;;;;;;;-0.77;98.89;97418.30;103109;1298;138749;-75
2022/11/23 07:22:34;;;;;;;22.70;12.10;;;;;;;-0.72;98.83;97416.46;103604;1288;23438;-74
2022/11/23 07:25:03;;;;;;;25.10;13.00;;;;;;;-0.69;98.97;97418.58;103340;1290;139259;-74
2022/11/23 07:27:31;;;;;;;24.10;12.60;;;;;;;-0.63;98.97;97414.73;103040;1298;22496;-74
2022/11/23 07:29:58;;;;;;;22.40;11.50;;;;;;;-0.57;98.96;97417.45;103532;1292;25423;-74
2022/11/23 07:32:25;;;;;;;26.80;13.00;;;;;;;-0.55;98.45;97417.44;103263;1300;140676;-74
2022/11/23 07:34:52;;;;;;;22.70;11.20;;;;;;;-0.55;98.25;97413.25;103406;1289;22482;-74
2022/11/23 07:37:19;;;;;;;23.30;12.10;;;;;;;-0.56;98.30;97413.40;103310;1286;139482;-73
2022/11/23 07:39:46;;;;;;;24.90;11.10;;;;;;;-0.54;98.24;97417.73;103607;1311;24250;-74
2022/11/23 07:42:13;;;;;;;29.40;13.30;;;;;;;-0.53;98.51;97412.39;103423;1294;25457;-74
2022/11/23 07:44:40;;;;;;;28.10;13.20;;;;;;;-0.52;98.24;97416.18;103625;1311;138804;-74
2022/11/23 07:47:09;;;;;;;28.20;13.20;;;;;;;-0.51;98.34;97414.54;103163;1289;24434;-74
2022/11/23 07:49:36;;;;;;;29.50;14.40;;;;;;;-0.48;98.41;97414.02;102952;1284;138344;-73
2022/11/23 07:52:03;;;;;;;27.90;12.80;;;;;;;-0.44;98.74;97413.38;103133;1306;23216;-73
2022/11/23 07:54:30;;;;;;;28.70;13.10;;;;;;;-0.41;98.66;97407.21;102981;1298;138434;-73
2022/11/23 07:56:56;;;;;;;28.80;13.10;;;;;;;-0.37;98.40;97409.00;103398;1313;22611;-73
2022/11/23 07:59:23;;;;;;;29.10;13.40;;;;;;;-0.34;98.53;97406.36;103539;1289;22468;-73
2022/11/23 08:01:50;;;;;;;32.70;14.10;;;;;;;-0.31;98.28;97408.84;103511;1295;138271;-73
2022/11/23 08:04:17;;;;;;;33.00;15.00;;;;;;;-0.30;98.24;97408.59;103310;1290;23947;-73
2022/11/23 08:06:44;;;;;;;31.60;14.80;;;;;;;-0.26;98.35;97407.75;102920;1309;138797;-73
2022/11/23 08:09:10;;;;;;;31.00;14.40;;;;;;;-0.24;98.38;97399.93;103110;1288;23099;-73
2022/11/23 08:11:37;;;;;;;33.20;14.40;;;;;;;-0.21;98.30;97395.86;102925;1297;24356;-73
2022/11/23 08:14:04;;;;;;;33.70;14.90;;;;;;;-0.18;98.34;97395.49;102996;1291;138260;-72
2022/11/23 08:16:31;;;;;;;33.30;14.30;;;;;;;-0.15;98.33;97395.83;103594;1297;24080;-73
2022/11/23 08:18:58;;;;;;;34.60;15.30;;;;;;;-0.15;98.06;97387.93;103164;1289;138549;-73
2022/11/23 08:21:25;;;;;;;30.50;12.90;;;;;;;-0.15;98.32;97383.98;103272;1285;25396;-73
2022/11/23 08:23:52;;;;;;;33.10;14.30;;;;;;;-0.14;98.03;97384.69;103369;1301;22486;-73
2022/11/23 08:26:19;;;;;;;34.20;14.80;;;;;;;-0.17;97.65;97377.89;103104;1312;139118;-73
2022/11/23 08:28:46;;;;;;;26.20;12.20;;;;;;;-0.21;97.64;97381.00;103439;1287;24257;-73
2022/11/23 08:31:13;;;;;;;31.40;13.60;;;;;;;-0.22;97.60;97375.08;103039;1312;138271;-73
2022/11/23 08:33:41;;;;;;;36.70;16.40;;;;;;;-0.22;97.86;97373.35;103178;1312;22519;-73
2022/11/23 08:36:08;;;;;;;30.10;12.70;;;;;;;-0.21;98.21;97375.69;103310;1301;22477;-73
2022/11/23 08:38:36;;;;;;;37.00;15.40;;;;;;;-0.19;98.21;97375.81;103343;1296;138349;-73
2022/11/23 08:41:04;;;;;;;33.00;14.80;;;;;;;-0.18;98.07;97379.24;103574;1295;25213;-73
2022/11/23 08:43:33;;;;;;;32.60;14.30;;;;;;;-0.20;98.04;97380.34;103442;1312;138439;-73
2022/11/23 08:46:01;;;;;;;35.50;15.20;;;;;;;-0.20;97.90;97387.14;103118;1297;25452;-73
2022/11/23 08:48:28;;;;;;;33.70;14.80;;;;;;;-0.19;98.14;97394.02;102785;1313;138562;-73
2022/11/23 08:50:58;;;;;;;35.00;13.70;;;;;;;-0.19;97.93;97398.33;103157;1291;22497;-73
2022/11/23 08:53:26;;;;;;;32.80;14.50;;;;;;;-0.19;98.10;97405.05;103429;1291;22734;-73
2022/11/23 08:55:53;;;;;;;33.30;14.20;;;;;;;-0.17;98.26;97411.92;103698;1288;138225;-73
2022/11/23 08:58:20;;;;;;;36.30;16.70;;;;;;;-0.14;98.44;97414.36;103202;1302;24221;-73
2022/11/23 09:00:47;;;;;;;41.00;16.70;;;;;;;-0.11;98.67;97418.81;103055;1296;138433;-73
2022/11/23 09:03:14;;;;;;;38.20;17.00;;;;;;;-0.07;98.71;97418.41;104261;1293;22518;-73
2022/11/23 09:05:41;;;;;;;40.50;16.30;;;;;;;-0.02;98.82;97419.27;103209;1306;24394;-73
2022/11/23 09:08:08;;;;;;;35.60;15.20;;;;;;;-0.00;98.51;97413.32;102916;1304;138358;-73
2022/11/23 09:10:35;;;;;;;37.40;17.10;;;;;;;0.02;98.36;97415.72;103220;1305;22694;-73
2022/11/23 09:13:03;;;;;;;35.40;15.80;;;;;;;0.03;98.08;97406.69;102785;1291;138679;-73
2022/11/23 09:15:30;;;;;;;41.50;17.50;;;;;;;0.00;97.73;97404.31;103354;1289;24256;-73
2022/11/23 09:17:57;;;;;;;45.10;19.10;;;;;;;-0.03;97.63;97399.39;103117;1295;25386;-73
2022/11/23 09:20:24;;;;;;;41.50;17.60;;;;;;;-0.04;97.87;97393.95;102970;1313;138871;-73
2022/11/23 09:22:53;;;;;;;38.60;17.70;;;;;;;-0.04;98.05;97397.38;103541;1289;22524;-73
2022/11/23 09:25:21;;;;;;;37.90;16.50;;;;;;;0.00;98.45;97403.98;103017;1298;138827;-73
2022/11/23 09:27:55;;;;;;;39.30;16.70;;;;;;;0.04;98.46;97401.23;103349;1299;22172;-73
2022/11/23 09:30:22;;;;;;;41.30;17.60;;;;;;;0.04;98.26;97394.39;103047;1313;22557;-73
2022/11/23 09:32:49;;;;;;;45.90;18.50;;;;;;;0.06;98.03;97394.75;102840;1290;138557;-73
2022/11/23 09:35:16;;;;;;;39.80;16.20;;;;;;;0.08;98.15;97392.33;103121;1295;25401;-73
2022/11/23 09:37:42;;;;;;;40.70;19.00;;;;;;;0.07;97.72;97391.46;102965;1289;138097;-73
2022/11/23 09:40:16;;;;;;;45.80;17.60;;;;;;;0.06;97.84;97389.07;103057;1299;24248;-73
2022/11/23 09:42:51;;;;;;;42.30;19.30;;;;;;;0.06;97.80;97386.93;103035;1288;138310;-73
2022/11/23 09:45:27;;;;;;;42.10;16.70;;;;;;;0.05;97.66;97384.76;103402;1298;22490;-74
2022/11/23 09:48:17;;;;;;;46.70;18.50;;;;;;;0.02;97.42;97380.18;104709;1289;22398;-73
2022/11/23 09:50:58;;;;;;;44.30;18.10;;;;;;;-0.00;97.72;97376.89;104721;1289;137902;-73
2022/11/23 09:53:49;;;;;;;42.40;18.40;;;;;;;-0.01;97.71;97378.08;103783;1296;22752;-73
2022/11/23 09:56:37;;;;;;;40.00;18.60;;;;;;;0.00;97.89;97370.63;103143;1312;138535;-73
2022/11/23 09:59:14;;;;;;;44.80;18.80;;;;;;;0.01;98.05;97361.39;103604;1298;23136;-73
2022/11/23 10:01:41;;;;;;;45.80;20.90;;;;;;;0.03;97.90;97355.77;103500;1296;138028;-73
2022/11/23 10:04:18;;;;;;;46.80;18.80;;;;;;;0.04;97.81;97349.38;103148;1303;22551;-73
2022/11/23 10:07:01;;;;;;;45.40;20.00;;;;;;;0.06;97.89;97348.44;102905;1312;139721;-73
2022/11/23 10:09:38;;;;;;;43.30;19.50;;;;;;;0.10;97.82;97343.12;103306;1305;22473;-73
2022/11/23 10:12:58;;;;;;;40.90;19.20;;;;;;;0.10;97.77;97344.27;103273;1288;24387;-72
2022/11/23 10:15:31;;;;;;;41.20;18.50;;;;;;;0.12;97.66;97345.52;102820;1297;22493;-72
2022/11/23 10:18:04;;;;;;;44.00;19.30;;;;;;;0.12;97.66;97347.77;102602;1294;22614;-72
2022/11/23 10:20:42;;;;;;;37.30;16.70;;;;;;;0.11;97.27;97345.38;102402;1302;138786;-72
2022/11/23 10:23:34;;;;;;;40.70;18.20;;;;;;;0.10;97.30;97346.50;102858;1293;22443;-72
2022/11/23 10:26:01;;;;;;;45.00;19.70;;;;;;;0.08;97.22;97343.20;102382;1304;138422;-74
2022/11/23 10:28:31;;;;;;;42.00;19.10;;;;;;;0.06;97.47;97342.55;102820;1297;25448;-73
2022/11/23 10:31:17;;;;;;;40.80;18.60;;;;;;;0.04;97.31;97339.73;102501;1295;138286;-74
2022/11/23 10:34:07;;;;;;;38.00;17.60;;;;;;;0.03;97.35;97340.48;102608;1317;22519;-74
2022/11/23 10:36:38;;;;;;;;;;;;;;;0.04;97.66;97334.23;102770;1316;138533;-74
2022/11/23 10:39:17;;;;;;;37.70;17.90;;;;;;;0.06;97.79;97331.88;102668;1293;22259;-74
2022/11/23 10:41:45;;;;;;;32.70;16.30;;;;;;;0.09;97.89;97330.23;102902;1291;25258;-74
2022/11/23 10:44:36;;;;;;;37.30;18.00;;;;;;;0.10;97.60;97335.16;102638;1316;138288;-74
2022/11/23 10:47:04;;;;;;;38.30;17.90;;;;;;;0.10;97.36;97338.83;102541;1293;24263;-74
2022/11/23 10:49:33;;;;;;;34.10;17.40;;;;;;;0.09;97.37;97336.20;102370;1303;139239;-73
2022/11/23 10:52:04;;;;;;;43.90;20.60;;;;;;;0.11;97.35;97337.77;102710;1313;23102;-73
2022/11/23 10:54:39;;;;;;;40.70;19.80;;;;;;;0.11;97.54;97331.52;103357;1305;138311;-74
2022/11/23 10:57:26;;;;;;;42.80;19.30;;;;;;;0.11;97.46;97334.60;103463;1305;24271;-74
2022/11/23 11:00:08;;;;;;;46.20;19.60;;;;;;;0.12;97.52;97334.80;103120;1296;22472;-74
2022/11/23 11:02:45;;;;;;;38.50;19.00;;;;;;;0.12;97.56;97335.21;103936;1295;138212;-74
2022/11/23 11:05:31;;;;;;;46.30;19.20;;;;;;;0.14;97.56;97333.90;103296;1311;24339;-74
2022/11/23 11:08:01;;;;;;;35.30;17.30;;;;;;;0.15;97.25;97333.60;103007;1300;139926;-74
2022/11/23 11:10:42;;;;;;;37.50;15.70;;;;;;;0.14;97.36;97331.64;103908;1304;23591;-73
2022/11/23 11:13:43;;;;;;;43.90;17.00;;;;;;;0.13;97.06;97332.33;103092;1302;138294;-74
2022/11/23 11:16:34;;;;;;;37.60;17.20;;;;;;;0.13;97.43;97324.50;103370;1304;22478;-73
2022/11/23 11:19:22;;;;;;;33.10;15.90;;;;;;;0.13;97.19;97323.73;103227;1285;139451;-74
2022/11/23 11:21:49;;;;;;;35.90;17.10;;;;;;;0.12;97.23;97323.20;103132;1310;22738;-74
2022/11/23 11:24:43;;;;;;;44.00;19.30;;;;;;;0.09;97.24;97317.34;103559;1286;22472;-74